createdAt,value
2018-09-28T00:02:17.663Z,101469.18
2018-09-28T00:04:45.779Z,101471.53
2018-09-28T00:07:13.886Z,101471.05
2018-09-28T00:09:41.977Z,101475.84
2018-09-28T00:12:10.084Z,101479.33
2018-09-28T00:14:38.200Z,101467.02
2018-09-28T00:17:06.510Z,101476.23
2018-09-28T00:19:34.600Z,101479.62
2018-09-28T00:22:02.691Z,101479.62
2018-09-28T00:24:30.783Z,101481.07
2018-09-28T00:26:58.889Z,101485.42
2018-09-28T00:29:27.004Z,101493.97
2018-09-28T00:31:55.128Z,101485.91
2018-09-28T00:34:23.233Z,101482.23
2018-09-28T00:36:51.380Z,101491.56
2018-09-28T00:39:19.476Z,101480.34
2018-09-28T00:41:47.605Z,101488.79
2018-09-28T00:44:15.724Z,101491.52
2018-09-28T00:46:43.804Z,101496.22
2018-09-28T00:49:11.946Z,101494.23
2018-09-28T00:51:40.360Z,101497.30
2018-09-28T00:54:08.473Z,101495.99
2018-09-28T00:56:36.573Z,101498.16
2018-09-28T00:59:04.673Z,101502.22
2018-09-28T01:01:32.768Z,101507.11
2018-09-28T01:04:00.856Z,101507.83
2018-09-28T01:06:28.964Z,101503.09
2018-09-28T01:08:57.069Z,101505.69
2018-09-28T01:11:25.166Z,101506.16
2018-09-28T01:13:53.264Z,101519.69
2018-09-28T01:16:21.368Z,101512.21
2018-09-28T01:18:49.468Z,101511.06
2018-09-28T01:21:17.548Z,101506.58
2018-09-28T01:23:45.658Z,101509.80
2018-09-28T01:26:13.733Z,101511.78
2018-09-28T01:28:41.876Z,101519.00
2018-09-28T01:31:09.964Z,101527.66
2018-09-28T01:33:38.068Z,101531.43
2018-09-28T01:36:06.207Z,101536.31
2018-09-28T01:38:34.280Z,101534.23
2018-09-28T01:41:02.394Z,101533.20
2018-09-28T01:43:30.528Z,101533.23
2018-09-28T01:45:58.633Z,101537.34
2018-09-28T01:48:26.768Z,101545.84
2018-09-28T01:50:54.848Z,101547.93
2018-09-28T01:53:22.938Z,101543.46
2018-09-28T01:55:51.066Z,101545.48
2018-09-28T01:58:19.146Z,101537.41
2018-09-28T02:00:47.245Z,101548.49
2018-09-28T02:03:15.341Z,101547.22
2018-09-28T02:05:43.438Z,101551.63
2018-09-28T02:08:11.544Z,101553.95
2018-09-28T02:10:40.447Z,101553.33
2018-09-28T02:13:08.592Z,101559.05
2018-09-28T02:15:36.676Z,101560.86
2018-09-28T02:18:04.762Z,101560.91
2018-09-28T02:20:32.884Z,101559.16
2018-09-28T02:23:01.000Z,101558.30
2018-09-28T02:25:29.089Z,101565.66
2018-09-28T02:27:57.194Z,101567.05
2018-09-28T02:30:25.309Z,101578.38
2018-09-28T02:32:53.437Z,101577.23
2018-09-28T02:35:21.544Z,101577.00
2018-09-28T02:37:49.872Z,101580.16
2018-09-28T02:40:17.962Z,101582.39
2018-09-28T02:42:46.056Z,101592.27
2018-09-28T02:45:14.140Z,101589.36
2018-09-28T02:47:42.481Z,101590.05
2018-09-28T02:50:10.658Z,101589.03
2018-09-28T02:52:38.765Z,101594.36
2018-09-28T02:55:06.860Z,101598.30
2018-09-28T02:57:34.970Z,101593.95
2018-09-28T03:00:03.055Z,101601.08
2018-09-28T03:02:31.156Z,101593.27
2018-09-28T03:04:59.245Z,101609.63
2018-09-28T03:07:27.329Z,101609.69
2018-09-28T03:09:55.417Z,101608.77
2018-09-28T03:12:23.504Z,101613.95
2018-09-28T03:14:51.613Z,101614.09
2018-09-28T03:17:19.692Z,101619.34
2018-09-28T03:19:47.785Z,101628.98
2018-09-28T03:22:15.863Z,101620.89
2018-09-28T03:24:43.975Z,101631.92
2018-09-28T03:27:12.069Z,101630.11
2018-09-28T03:29:40.202Z,101631.28
2018-09-28T03:32:08.287Z,101629.77
2018-09-28T03:34:36.381Z,101629.66
2018-09-28T03:37:04.580Z,101629.97
2018-09-28T03:39:32.692Z,101636.53
2018-09-28T03:42:00.770Z,101634.83
2018-09-28T03:44:28.877Z,101642.38
2018-09-28T03:46:56.957Z,101634.76
2018-09-28T03:49:25.062Z,101639.50
2018-09-28T03:51:53.147Z,101639.30
2018-09-28T03:54:21.244Z,101645.99
2018-09-28T03:56:49.345Z,101648.22
2018-09-28T03:59:17.420Z,101656.41
2018-09-28T04:01:45.539Z,101662.17
2018-09-28T04:04:13.599Z,101662.86
2018-09-28T04:06:41.710Z,101667.95
2018-09-28T04:09:11.083Z,101675.03
2018-09-28T04:11:39.172Z,101675.03
2018-09-28T04:14:07.440Z,101680.53
2018-09-28T04:16:35.637Z,101678.25
2018-09-28T04:19:03.756Z,101670.27
2018-09-28T04:21:31.896Z,101677.98
2018-09-28T04:24:00.149Z,101677.84
2018-09-28T04:26:28.256Z,101687.35
2018-09-28T04:28:56.352Z,101691.23
2018-09-28T04:31:24.463Z,101699.48
2018-09-28T04:33:52.560Z,101702.82
2018-09-28T04:36:20.656Z,101710.48
2018-09-28T04:38:48.768Z,101713.05
2018-09-28T04:41:16.834Z,101719.30
2018-09-28T04:43:44.928Z,101720.45
2018-09-28T04:46:13.045Z,101725.23
2018-09-28T04:48:41.134Z,101724.05
2018-09-28T04:51:09.223Z,101720.55
2018-09-28T04:53:37.479Z,101726.11
2018-09-28T04:56:05.564Z,101729.52
2018-09-28T04:58:33.674Z,101729.39
2018-09-28T05:01:01.792Z,101733.15
2018-09-28T05:03:29.898Z,101737.95
2018-09-28T05:05:57.978Z,101737.49
2018-09-28T05:08:26.061Z,101745.20
2018-09-28T05:10:54.173Z,101752.62
2018-09-28T05:13:22.266Z,101756.86
2018-09-28T05:15:50.344Z,101758.28
2018-09-28T05:18:18.464Z,101766.20
2018-09-28T05:20:46.574Z,101765.64
2018-09-28T05:23:14.653Z,101766.56
2018-09-28T05:25:42.776Z,101767.11
2018-09-28T05:28:10.888Z,101767.86
2018-09-28T05:30:44.972Z,101781.17
2018-09-28T05:33:07.145Z,101782.15
2018-09-28T05:35:35.160Z,101787.44
2018-09-28T05:38:03.241Z,101790.88
2018-09-28T05:40:31.346Z,101791.45
2018-09-28T05:42:59.441Z,101784.97
2018-09-28T05:45:27.561Z,101785.99
2018-09-28T05:47:55.693Z,101793.13
2018-09-28T05:50:23.810Z,101800.72
2018-09-28T05:52:51.921Z,101800.33
2018-09-28T05:55:20.031Z,101798.11
2018-09-28T05:57:51.589Z,101805.90
2018-09-28T06:00:25.023Z,101812.22
2018-09-28T06:02:58.511Z,101814.20
2018-09-28T06:05:33.201Z,101813.92
2018-09-28T06:08:02.312Z,101819.33
2018-09-28T06:10:30.420Z,101825.58
2018-09-28T06:12:58.540Z,101836.05
2018-09-28T06:15:26.641Z,101833.77
2018-09-28T06:17:54.796Z,101839.69
2018-09-28T06:20:22.828Z,101839.41
2018-09-28T06:22:50.909Z,101848.09
2018-09-28T06:25:19.000Z,101850.93
2018-09-28T06:27:47.102Z,101848.83
2018-09-28T06:30:15.199Z,101849.51
2018-09-28T06:32:43.264Z,101848.42
2018-09-28T06:35:11.357Z,101859.30
2018-09-28T06:37:39.484Z,101857.72
2018-09-28T06:40:07.713Z,101863.49
2018-09-28T06:42:35.892Z,101868.27
2018-09-28T06:45:03.998Z,101869.58
2018-09-28T06:47:32.080Z,101875.90
2018-09-28T06:50:00.212Z,101870.48
2018-09-28T06:52:28.634Z,101866.95
2018-09-28T06:54:56.729Z,101870.41
2018-09-28T06:57:24.844Z,101867.05
2018-09-28T06:59:52.999Z,101880.13
2018-09-28T07:02:21.127Z,101883.81
2018-09-28T07:04:49.227Z,101880.86
2018-09-28T07:07:17.360Z,101894.84
2018-09-28T07:09:45.437Z,101897.02
2018-09-28T07:12:13.579Z,101900.63
2018-09-28T07:14:41.588Z,101902.52
2018-09-28T07:17:09.688Z,101909.27
2018-09-28T07:19:37.821Z,101914.80
2018-09-28T07:22:06.033Z,101916.16
2018-09-28T07:24:34.174Z,101928.29
2018-09-28T07:27:02.268Z,101920.69
2018-09-28T07:29:30.364Z,101920.20
2018-09-28T07:31:58.481Z,101920.25
2018-09-28T07:34:26.582Z,101923.62
2018-09-28T07:36:54.744Z,101919.78
2018-09-28T07:39:22.805Z,101925.13
2018-09-28T07:41:50.949Z,101922.25
2018-09-28T07:44:18.956Z,101925.59
2018-09-28T07:46:47.063Z,101932.02
2018-09-28T07:49:15.200Z,101930.94
2018-09-28T07:51:43.274Z,101946.27
2018-09-28T07:54:11.410Z,101950.03
2018-09-28T07:56:39.505Z,101955.41
2018-09-28T07:59:07.612Z,101958.30
2018-09-28T08:01:35.740Z,101956.81
2018-09-28T08:04:03.868Z,101960.42
2018-09-28T08:06:31.950Z,101957.08
2018-09-28T08:09:00.053Z,101957.92
2018-09-28T08:11:28.151Z,101962.05
2018-09-28T08:13:56.274Z,101971.54
2018-09-28T08:16:24.341Z,101976.56
2018-09-28T08:18:52.404Z,101974.08
2018-09-28T08:21:20.489Z,101969.49
2018-09-28T08:23:48.602Z,101986.24
2018-09-28T08:26:16.691Z,101987.68
2018-09-28T08:28:44.776Z,101985.72
2018-09-28T08:31:12.880Z,101992.03
2018-09-28T08:33:41.617Z,101987.74
2018-09-28T08:36:09.774Z,101994.58
2018-09-28T08:38:37.847Z,101995.97
2018-09-28T08:41:05.985Z,101996.27
2018-09-28T08:43:34.130Z,101989.08
2018-09-28T08:46:02.216Z,101994.64
2018-09-28T08:48:30.377Z,102001.14
2018-09-28T08:50:58.448Z,101998.64
2018-09-28T08:53:26.534Z,101991.78
2018-09-28T08:55:54.682Z,101999.45
2018-09-28T08:58:22.721Z,101996.29
2018-09-28T09:00:50.840Z,102002.08
2018-09-28T09:03:18.957Z,102006.42
2018-09-28T09:05:47.056Z,102009.72
2018-09-28T09:08:15.145Z,102013.17
2018-09-28T09:10:43.250Z,102019.67
2018-09-28T09:13:11.352Z,102015.63
2018-09-28T09:15:39.443Z,102021.20
2018-09-28T09:18:07.591Z,102017.75
2018-09-28T09:20:35.661Z,102032.55
2018-09-28T09:23:03.748Z,102030.13
2018-09-28T09:25:31.854Z,102033.16
2018-09-28T09:27:59.946Z,102037.55
2018-09-28T09:30:28.026Z,102028.62
2018-09-28T09:32:56.104Z,102022.33
2018-09-28T09:35:24.253Z,102022.16
2018-09-28T09:37:52.352Z,102027.83
2018-09-28T09:40:20.557Z,102035.02
2018-09-28T09:42:48.678Z,102032.47
2018-09-28T09:45:16.769Z,102035.02
2018-09-28T09:47:44.879Z,102031.94
2018-09-28T09:50:13.130Z,102027.73
2018-09-28T09:52:41.228Z,102018.59
2018-09-28T09:55:09.390Z,102025.97
2018-09-28T09:57:37.609Z,102023.76
2018-09-28T10:00:05.949Z,102025.42
2018-09-28T10:02:39.421Z,102020.69
2018-09-28T10:05:07.480Z,102027.41
2018-09-28T10:07:35.585Z,102033.28
2018-09-28T10:10:03.681Z,102028.64
2018-09-28T10:12:31.876Z,102020.56
2018-09-28T10:14:59.908Z,102027.08
2018-09-28T10:17:28.011Z,102022.68
2018-09-28T10:19:56.112Z,102035.12
2018-09-28T10:22:24.168Z,102042.88
2018-09-28T10:24:52.268Z,102040.16
2018-09-28T10:27:20.399Z,102042.43
2018-09-28T10:29:48.448Z,102045.27
2018-09-28T10:34:50.983Z,102050.00
2018-09-28T10:37:18.981Z,102041.71
2018-09-28T10:39:47.177Z,102039.64
2018-09-28T10:42:15.197Z,102038.53
2018-09-28T10:44:43.327Z,102036.63
2018-09-28T10:47:11.372Z,102047.13
2018-09-28T10:49:39.480Z,102039.70
2018-09-28T10:52:08.032Z,102033.19
2018-09-28T10:54:36.236Z,102036.45
2018-09-28T10:57:04.397Z,102039.16
2018-09-28T10:59:32.513Z,102042.41
2018-09-28T11:02:00.592Z,102042.80
2018-09-28T11:04:28.709Z,102046.05
2018-09-28T11:06:56.820Z,102055.11
2018-09-28T11:09:24.962Z,102042.18
2018-09-28T11:11:53.068Z,102046.38
2018-09-28T11:14:21.177Z,102046.75
2018-09-28T11:16:49.293Z,102050.65
2018-09-28T11:19:17.381Z,102047.85
2018-09-28T11:21:45.560Z,102053.95
2018-09-28T11:24:13.600Z,102047.30
2018-09-28T11:26:41.713Z,102050.00
2018-09-28T11:29:09.824Z,102055.66
2018-09-28T11:31:37.949Z,102047.52
2018-09-28T11:34:06.033Z,102052.71
2018-09-28T11:36:34.153Z,102052.79
2018-09-28T11:39:02.354Z,102049.23
2018-09-28T11:41:30.480Z,102049.51
2018-09-28T11:43:58.592Z,102053.54
2018-09-28T11:46:26.720Z,102054.95
2018-09-28T11:48:54.852Z,102051.86
2018-09-28T11:51:23.033Z,102053.02
2018-09-28T11:53:51.079Z,102050.39
2018-09-28T11:56:19.192Z,102050.70
2018-09-28T11:58:47.313Z,102046.56
2018-09-28T12:01:15.393Z,102038.67
2018-09-28T12:03:43.797Z,102039.11
2018-09-28T12:06:11.898Z,102038.69
2018-09-28T12:08:39.987Z,102040.16
2018-09-28T12:11:08.174Z,102047.44
2018-09-28T12:13:36.229Z,102042.13
2018-09-28T12:16:04.308Z,102039.81
2018-09-28T12:18:32.509Z,102035.41
2018-09-28T12:21:00.736Z,102043.19
2018-09-28T12:23:28.893Z,102042.64
2018-09-28T12:25:57.109Z,102042.73
2018-09-28T12:28:25.231Z,102040.55
2018-09-28T12:30:53.330Z,102043.06
2018-09-28T12:33:21.505Z,102038.84
2018-09-28T12:35:49.573Z,102049.47
2018-09-28T12:38:17.651Z,102038.52
2018-09-28T12:40:45.776Z,102037.19
2018-09-28T12:43:13.884Z,102029.64
2018-09-28T12:45:42.068Z,102032.27
2018-09-28T12:48:10.174Z,102038.31
2018-09-28T12:50:38.257Z,102041.02
2018-09-28T12:53:06.413Z,102040.13
2018-09-28T12:55:34.505Z,102037.88
2018-09-28T12:58:02.612Z,102044.56
2018-09-28T13:00:30.787Z,102036.76
2018-09-28T13:02:58.842Z,102042.47
2018-09-28T13:05:26.981Z,102035.88
2018-09-28T13:07:55.053Z,102041.88
2018-09-28T13:10:23.200Z,102047.66
2018-09-28T13:12:51.392Z,102040.13
2018-09-28T13:15:19.429Z,102040.30
2018-09-28T13:17:47.524Z,102045.73
2018-09-28T13:20:15.716Z,102043.13
2018-09-28T13:22:43.766Z,102056.03
2018-09-28T13:25:11.865Z,102052.73
2018-09-28T13:27:39.971Z,102059.36
2018-09-28T13:30:08.080Z,102063.46
2018-09-28T13:32:36.184Z,102066.89
2018-09-28T13:35:04.312Z,102071.98
2018-09-28T13:37:32.415Z,102065.97
2018-09-28T13:40:00.515Z,102068.20
2018-09-28T13:42:28.615Z,102072.86
2018-09-28T13:44:56.741Z,102074.64
2018-09-28T13:47:24.836Z,102074.39
2018-09-28T13:49:53.052Z,102066.31
2018-09-28T13:52:21.184Z,102066.80
2018-09-28T13:54:49.389Z,102084.23
2018-09-28T13:57:17.324Z,102082.52
2018-09-28T13:59:45.418Z,102075.88
2018-09-28T14:02:13.534Z,102081.84
2018-09-28T14:04:41.807Z,102077.12
2018-09-28T14:07:10.124Z,102075.16
2018-09-28T14:09:38.068Z,102075.88
2018-09-28T14:12:06.193Z,102081.28
2018-09-28T14:14:34.318Z,102078.97
2018-09-28T14:17:02.385Z,102083.16
2018-09-28T14:19:30.519Z,102085.41
2018-09-28T14:21:58.649Z,102085.33
2018-09-28T14:24:26.750Z,102080.59
2018-09-28T14:26:54.846Z,102077.50
2018-09-28T14:29:22.949Z,102080.30
2018-09-28T14:31:51.055Z,102089.50
2018-09-28T14:34:19.208Z,102085.33
2018-09-28T14:36:47.383Z,102086.72
2018-09-28T14:39:15.451Z,102085.78
2018-09-28T14:41:43.603Z,102083.55
2018-09-28T14:44:11.725Z,102088.34
2018-09-28T14:46:39.844Z,102090.66
2018-09-28T14:49:08.027Z,102089.75
2018-09-28T14:51:36.073Z,102103.03
2018-09-28T14:54:04.258Z,102099.41
2018-09-28T14:56:32.344Z,102100.44
2018-09-28T14:59:00.439Z,102117.74
2018-09-28T15:01:28.681Z,102116.67
2018-09-28T15:03:56.658Z,102122.14
2018-09-28T15:06:24.849Z,102121.47
2018-09-28T15:08:52.894Z,102115.16
2018-09-28T15:11:21.157Z,102118.89
2018-09-28T15:13:49.250Z,102126.16
2018-09-28T15:16:17.395Z,102134.63
2018-09-28T15:18:45.493Z,102131.75
2018-09-28T15:21:13.605Z,102123.31
2018-09-28T15:23:42.097Z,102119.97
2018-09-28T15:26:10.217Z,102118.06
2018-09-28T15:28:38.332Z,102125.63
2018-09-28T15:31:06.749Z,102124.67
2018-09-28T15:33:34.842Z,102128.77
2018-09-28T15:36:02.941Z,102120.70
2018-09-28T15:38:31.100Z,102129.70
2018-09-28T15:40:59.228Z,102124.83
2018-09-28T15:43:27.331Z,102114.63
2018-09-28T15:45:55.437Z,102115.61
2018-09-28T15:48:23.563Z,102120.27
2018-09-28T15:50:51.664Z,102126.22
2018-09-28T15:53:19.760Z,102134.14
2018-09-28T15:55:47.890Z,102137.69
2018-09-28T15:58:16.086Z,102135.32
2018-09-28T16:00:44.202Z,102132.43
2018-09-28T16:03:12.312Z,102142.12
2018-09-28T16:05:40.450Z,102151.16
2018-09-28T16:08:08.561Z,102141.33
2018-09-28T16:10:36.672Z,102164.83
2018-09-28T16:15:39.240Z,102169.05
2018-09-28T16:18:07.320Z,102166.48
2018-09-28T16:20:35.436Z,102157.57
2018-09-28T16:23:03.552Z,102157.23
2018-09-28T16:25:31.678Z,102155.19
2018-09-28T16:27:59.786Z,102165.52
2018-09-28T16:30:27.884Z,102173.69
2018-09-28T16:32:55.985Z,102171.80
2018-09-28T16:35:24.093Z,102178.20
2018-09-28T16:37:52.200Z,102179.84
2018-09-28T16:40:20.292Z,102188.42
2018-09-28T16:42:48.408Z,102195.30
2018-09-28T16:45:16.511Z,102197.65
2018-09-28T16:47:44.594Z,102203.47
2018-09-28T16:50:12.671Z,102206.37
2018-09-28T16:52:40.776Z,102209.63
2018-09-28T16:55:08.861Z,102210.01
2018-09-28T16:57:36.931Z,102206.24
2018-09-28T17:00:05.111Z,102214.40
2018-09-28T17:02:33.188Z,102211.60
2018-09-28T17:05:01.269Z,102221.66
2018-09-28T17:07:29.403Z,102211.56
2018-09-28T17:09:57.516Z,102219.38
2018-09-28T17:12:25.570Z,102228.56
2018-09-28T17:14:53.676Z,102227.25
2018-09-28T17:17:21.789Z,102239.77
2018-09-28T17:19:49.874Z,102245.77
2018-09-28T17:22:17.975Z,102250.52
2018-09-28T17:24:46.135Z,102246.58
2018-09-28T17:27:14.232Z,102246.69
2018-09-28T17:29:42.309Z,102257.69
2018-09-28T17:32:11.340Z,102265.33
2018-09-28T17:34:39.471Z,102267.75
2018-09-28T17:37:07.564Z,102271.93
2018-09-28T17:39:35.648Z,102259.79
2018-09-28T17:42:03.741Z,102262.86
2018-09-28T17:44:31.808Z,102267.49
2018-09-28T17:46:59.877Z,102267.84
2018-09-28T17:49:27.969Z,102268.48
2018-09-28T17:51:56.069Z,102274.63
2018-09-28T17:54:24.152Z,102282.23
2018-09-28T17:56:52.253Z,102282.69
2018-09-28T17:59:20.356Z,102280.56
2018-09-28T18:01:48.468Z,102289.47
2018-09-28T18:04:16.580Z,102280.22
2018-09-28T18:06:44.661Z,102282.58
2018-09-28T18:09:13.296Z,102285.28
2018-09-28T18:11:41.421Z,102293.19
2018-09-28T18:14:09.677Z,102289.12
2018-09-28T18:16:37.657Z,102286.69
2018-09-28T18:19:05.832Z,102287.27
2018-09-28T18:21:33.904Z,102290.74
2018-09-28T18:24:02.021Z,102287.09
2018-09-28T18:26:30.141Z,102290.34
2018-09-28T18:28:58.265Z,102285.78
2018-09-28T18:31:26.476Z,102299.59
2018-09-28T18:33:54.564Z,102286.28
2018-09-28T18:36:22.669Z,102295.34
2018-09-28T18:38:50.757Z,102292.38
2018-09-28T18:41:18.876Z,102299.95
2018-09-28T18:43:46.969Z,102306.30
2018-09-28T18:46:15.533Z,102301.37
2018-09-28T18:48:43.637Z,102306.88
2018-09-28T18:51:11.722Z,102309.80
2018-09-28T18:53:40.367Z,102314.70
2018-09-28T18:56:08.464Z,102321.05
2018-09-28T18:58:36.575Z,102327.06
2018-09-28T19:01:04.661Z,102324.20
2018-09-28T19:03:32.753Z,102324.89
2018-09-28T19:06:00.948Z,102319.95
2018-09-28T19:08:28.974Z,102328.81
2018-09-28T19:10:57.089Z,102328.05
2018-09-28T19:13:25.164Z,102332.41
2018-09-28T19:15:53.270Z,102328.32
2018-09-28T19:18:21.357Z,102338.70
2018-09-28T19:20:49.446Z,102340.17
2018-09-28T19:23:17.586Z,102337.19
2018-09-28T19:25:45.684Z,102337.59
2018-09-28T19:28:13.740Z,102340.28
2018-09-28T19:30:42.408Z,102348.78
2018-09-28T19:33:10.493Z,102355.35
2018-09-28T19:35:38.590Z,102359.31
2018-09-28T19:38:06.676Z,102356.70
2018-09-28T19:40:34.872Z,102361.14
2018-09-28T19:43:03.033Z,102358.98
2018-09-28T19:45:31.131Z,102360.95
2018-09-28T19:47:59.206Z,102363.13
2018-09-28T19:50:27.292Z,102360.95
2018-09-28T19:52:55.392Z,102364.88
2018-09-28T19:55:23.497Z,102374.02
2018-09-28T19:57:51.625Z,102368.22
2018-09-28T20:00:19.712Z,102368.26
2018-09-28T20:02:47.805Z,102368.87
2018-09-28T20:05:15.917Z,102378.61
2018-09-28T20:07:44.008Z,102374.83
2018-09-28T20:10:12.120Z,102374.99
2018-09-28T20:12:40.197Z,102377.58
2018-09-28T20:15:08.356Z,102385.13
2018-09-28T20:17:36.445Z,102382.52
2018-09-28T20:20:04.524Z,102379.02
2018-09-28T20:22:32.627Z,102387.84
2018-09-28T20:25:00.757Z,102394.39
2018-09-28T20:27:28.832Z,102401.02
2018-09-28T20:29:56.908Z,102402.01
2018-09-28T20:32:25.065Z,102406.72
2018-09-28T20:34:53.210Z,102405.09
2018-09-28T20:37:21.280Z,102412.48
2018-09-28T20:39:49.380Z,102405.98
2018-09-28T20:42:17.477Z,102411.33
2018-09-28T20:44:45.641Z,102404.87
2018-09-28T20:47:14.069Z,102408.72
2018-09-28T20:49:42.343Z,102419.28
2018-09-28T20:52:10.414Z,102424.62
2018-09-28T20:54:38.523Z,102423.80
2018-09-28T20:57:06.604Z,102428.75
2018-09-28T20:59:34.696Z,102434.09
2018-09-28T21:02:02.800Z,102432.84
2018-09-28T21:04:30.877Z,102438.58
2018-09-28T21:06:58.999Z,102445.47
2018-09-28T21:09:27.087Z,102443.75
2018-09-28T21:11:55.181Z,102439.23
2018-09-28T21:14:23.261Z,102442.08
2018-09-28T21:16:51.365Z,102443.17
2018-09-28T21:19:19.424Z,102443.59
2018-09-28T21:21:47.529Z,102447.91
2018-09-28T21:24:15.621Z,102453.13
2018-09-28T21:26:43.692Z,102443.28
2018-09-28T21:29:11.760Z,102457.20
2018-09-28T21:31:39.853Z,102450.48
2018-09-28T21:34:07.968Z,102442.32
2018-09-28T21:36:36.057Z,102444.05
2018-09-28T21:39:05.712Z,102453.92
2018-09-28T21:41:33.792Z,102448.69
2018-09-28T21:44:01.908Z,102447.85
2018-09-28T21:46:29.995Z,102442.32
2018-09-28T21:48:58.081Z,102444.88
2018-09-28T21:51:26.152Z,102453.48
2018-09-28T21:53:54.260Z,102451.77
2018-09-28T21:56:22.344Z,102460.91
2018-09-28T21:58:50.420Z,102457.86
2018-09-28T22:01:19.649Z,102470.04
2018-09-28T22:03:49.159Z,102459.22
2018-09-28T22:06:17.273Z,102463.41
2018-09-28T22:08:45.621Z,102464.84
2018-09-28T22:11:14.004Z,102459.23
2018-09-28T22:13:42.311Z,102464.51
2018-09-28T22:16:10.406Z,102457.07
2018-09-28T22:18:38.513Z,102453.83
2018-09-28T22:21:06.647Z,102461.58
2018-09-28T22:23:34.737Z,102458.52
2018-09-28T22:26:02.819Z,102463.70
2018-09-28T22:28:30.888Z,102460.74
2018-09-28T22:30:58.979Z,102463.00
2018-09-28T22:33:27.180Z,102463.27
2018-09-28T22:35:55.288Z,102457.39
2018-09-28T22:38:23.400Z,102457.11
2018-09-28T22:40:51.532Z,102455.80
2018-09-28T22:43:19.640Z,102463.62
2018-09-28T22:45:47.717Z,102466.63
2018-09-28T22:48:15.776Z,102469.52
2018-09-28T22:50:43.859Z,102462.23
2018-09-28T22:53:11.962Z,102467.22
2018-09-28T22:55:40.076Z,102472.91
2018-09-28T22:58:08.164Z,102471.94
2018-09-28T23:00:36.261Z,102480.21
2018-09-28T23:03:04.354Z,102476.53
2018-09-28T23:05:32.446Z,102470.34
2018-09-28T23:08:00.564Z,102468.62
2018-09-28T23:10:28.713Z,102464.72
2018-09-28T23:12:56.769Z,102468.83
2018-09-28T23:15:24.847Z,102472.19
2018-09-28T23:17:52.945Z,102473.98
2018-09-28T23:20:21.139Z,102481.41
2018-09-28T23:22:49.220Z,102493.20
2018-09-28T23:25:17.315Z,102489.03
2018-09-28T23:27:45.409Z,102490.33
2018-09-28T23:30:13.500Z,102484.27
2018-09-28T23:32:41.621Z,102477.81
2018-09-28T23:35:09.720Z,102482.15
2018-09-28T23:37:37.832Z,102482.27
2018-09-28T23:40:06.113Z,102491.85
2018-09-28T23:42:34.216Z,102493.52
2018-09-28T23:45:02.328Z,102497.11
2018-09-28T23:47:30.420Z,102499.92
2018-09-28T23:49:58.517Z,102490.92
2018-09-28T23:52:27.432Z,102493.58
2018-09-28T23:54:55.537Z,102485.33
2018-09-28T23:57:23.621Z,102480.55
2018-09-28T23:59:51.696Z,102484.79
